Laukaa, Finland
Kieli:  Suomi
CurCond
Päivitetty18/04/2019 16:05 
 

Lähistön Lentoasemien Säätiloja:

 

EFJY - Jyvaskyla (mil/C,) Finland
Etäisyys Sääasemalta: PKo 21km
Päivitetty: 18/04/2019 15:50
Selkeätä
Selkeätä
 Tuulen suunta varies
Tuuli: varies 6 km/h
Lämpötila: 15°C
Kastepiste: -11°C
Ilmankosteus: 16%
Ilmanpaine: 1033 hPa
Yhteenveto: Selkeätä
Näkyvyys: Enemmän Kuin 10 km
2019/04/18 12:50 EFJY 181250Z AUTO VRB03KT CAVOK 15/M11 Q1033
EFHA - Halli (fin-Afb), Finland
Etäisyys Sääasemalta: Lo 56km
Päivitetty: 18/04/2019 15:50
Selkeätä
Selkeätä
 Tuulen suunta Lu
Tuuli: Lu 15 km/h
Lämpötila: 16°C
Kastepiste: -9°C
Ilmankosteus: 17%
Ilmanpaine: 1033 hPa
Yhteenveto: Selkeätä
Näkyvyys: Enemmän Kuin 10 km
2019/04/18 12:50 EFHA 181250Z AUTO 31008KT CAVOK 16/M09 Q1033
EFMI - Mikkeli, Finland
Etäisyys Sääasemalta: IKa 105km
Päivitetty: 18/04/2019 15:50
Selkeätä
Selkeätä
 Tuulen suunta L
Tuuli: L 11 km/h
Lämpötila: 15°C
Kastepiste: -6°C
Ilmankosteus: 23%
Ilmanpaine: 1033 hPa
Yhteenveto: Selkeätä
Näkyvyys: Enemmän Kuin 10 km
2019/04/18 12:50 EFMI 181250Z AUTO 27006KT 230V360 CAVOK 15/M06 Q1033
 
EFTP - Tampere/Pirkkala, Finland
Etäisyys Sääasemalta: Lo 135km
Päivitetty: 18/04/2019 15:50
Selkeätä
Selkeätä
 Tuulen suunta PLu
Tuuli: PLu 11 km/h
Lämpötila: 16°C
Kastepiste: -4°C
Ilmankosteus: 25%
Ilmanpaine: 1034 hPa
Yhteenveto: Selkeätä
Näkyvyys: Enemmän Kuin 10 km
2019/04/18 12:50 EFTP 181250Z AUTO 34006KT CAVOK 16/M04 Q1034
EFKU - Kuopio (mil/Civ), Finland
Etäisyys Sääasemalta: Ko 146km
Päivitetty: 18/04/2019 15:50
Selkeätä
Selkeätä
 Tuulen suunta IKo
Tuuli: IKo 7 km/h
Lämpötila: 12°C
Kastepiste: -3°C
Ilmankosteus: 35%
Ilmanpaine: 1033 hPa
Yhteenveto: Selkeätä
Näkyvyys: Enemmän Kuin 10 km
2019/04/18 12:50 EFKU 181250Z 07004KT CAVOK 12/M03 Q1033
EFSI - Seinajoki-Ilmajo, Finland
Etäisyys Sääasemalta: LLu 149km
Päivitetty: 18/04/2019 15:50
Selkeätä
Selkeätä
 Tuulen suunta LLu
Tuuli: LLu 15 km/h
Lämpötila: 17°C
Kastepiste: -1°C
Ilmankosteus: 30%
Ilmanpaine: 1033 hPa
Yhteenveto: Selkeätä
Näkyvyys: Enemmän Kuin 10 km
2019/04/18 12:50 EFSI 181250Z AUTO 29008KT 240V320 CAVOK 17/M01 Q1033